AirNav   ATP
 
 1558 users online  

A61 Tuntutuliak Airport
Tuntutuliak, Alaska, USA


FAA INFORMATION EFFECTIVE 04 JANUARY 2018

Location

FAA Identifier: A61
Lat/Long: 60-21-05.8000N / 162-39-14.3000W
60-21.096667N / 162-39.238333W
60.3516111 / -162.6539722
(estimated)
Elevation: 16 ft. / 5 m (estimated)
Variation: 18E (1985)
From city: 1 mile NE of TUNTUTULIAK, AK
Time zone: UTC -9 (UTC -8 during Daylight Saving Time)
Zip code: 99680

Airport Operations

Airport use: Open to the public
Activation date: 08/1974
Control tower: no
ARTCC: ANCHORAGE CENTER
FSS: KENAI FLIGHT SERVICE STATION [907-283-8469]
NOTAMs facility: ENA (NOTAM-D service available)
Attendance: UNATNDD
Wind indicator: lighted
Segmented circle: yes
Lights: ACTVT MIRL RY 02/20 - 122.7.
Beacon: white-green (lighted land airport)
Operates sunset to sunrise.

Airport Communications

CTAF: 122.7

Nearby radio navigation aids

VOR radial/distance  VOR name  Freq  Var
BETr209/35.7BETHEL VORTAC114.1014E

 
NDB name  Hdg/Dist  Freq  Var  ID
OSCARVILLE210/35.025111EOSE --- ... .

Airport Services

Airframe service: NONE
Powerplant service: NONE

Runway Information

Runway 2/20

Dimensions: 3025 x 90 ft. / 922 x 27 m
Surface: gravel, in good condition
Runway edge lights: medium intensity
Runway edge markings: RY 02/20 NSTD MKGS: RY ENDS MKD WITH CONES & REFLECTIVE MARKERS.
RUNWAY 2  RUNWAY 20
Traffic pattern: leftleft
Markings: NSTDNSTD
Runway end identifier lights: yes
Obstructions: 6 ft. brush, 36 ft. from runway, 65 ft. right of centerline, 6:1 slope to clear3 ft. brush, 5 ft. from runway, 68 ft. right of centerline, 1:1 slope to clear

Airport Ownership and Management from official FAA records

Ownership: Publicly-owned
Owner: ALASKA DOT&PF CENTRAL REGION
PO BOX 196900
ANCHORAGE, AK 99519-6900
Phone (907) 269-0749
Manager: LAWERENCE DAVIS
PO BOX 505
BETHEL, AK 99559
Phone (907) 543-2498

Airport Operational Statistics

Aircraft operations: avg 83/month *
100% air taxi
* for 12-month period ending 31 December 2016

Additional Remarks

MULTIPLE UNLIT WIND GENERATORS NEAR RIVER UP TO 120'.
WINDSOCKS MAY BE UNRELIABLE
RY CONDITION NOT MONITORED; RECOMMEND VISUAL INSPECTION PRIOR TO USE.
WX CAMERA AVBL ON INTERNET AT HTTP://AVCAMS.FAA.GOV
BIRDS ON INVOF RY.

Instrument Procedures

There are no published instrument procedures at A61.

Some nearby airports with instrument procedures:

PAEE - Eek Airport (20 nm SE)
PANA - Napakiak Airport (28 nm NE)
PFKA - Kasigluk Airport (32 nm N)
PAPK - Napaskiak Airport (33 nm NE)
PABE - Bethel Airport (35 nm NE)
 
Loc | Ops | Rwys | IFR | FBO | Links
Com | Nav | Svcs | Stats | Notes

Crowley
 
Area around A61 (Tuntutuliak Airport)
 
Road maps at: MapQuest Bing Google
 
Aerial photo
No photo
 
Sectional chart

 
Airport distance calculator
Flying to Tuntutuliak Airport? Find the distance to fly.

From to A61

Sunrise and sunset
Times for 23-Jan-2018
 Local
(UTC-9)
 Zulu
(UTC)
Morning civil twilight09:3618:36
Sunrise10:2719:27
Sunset17:3802:38
Evening civil twilight18:2903:29

Current date and time
Zulu (UTC)  23-Jan-2018 20:43:44
Local (UTC-9)  23-Jan-2018 11:43:44
 
METAR
PANA 
28nm NE 
231056Z AUTO 03003KT 10SM CLR M24/M27 A3034 RMK AO2 SLP273 T12441267 FZRANO
PPIT 
34nm N 
231056Z AUTO 04004KT 10SM BKN060 M23/M25 A3034 RMK AO2 SLP275 T12281250 FZRANO TSNO
PABE 
36nm NE 
231053Z 00000KT 10SM CLR M23/M26 A3034 RMK AO2 SLP277 T12281261
PAQH 
43nm SE 
231056Z AUTO 34004KT 10SM CLR M23/M25 A3034 RMK AO2 SLP277 T12281250 PWINO FZRANO $
PFKW 
44nm NE 
231056Z AUTO 36004KT 10SM CLR M24/M26 A3034 RMK AO2 SLP275 T12391261 FZRANO
PAKI 
48nm SW 
231056Z AUTO 07006KT 9SM -SN OVC022 M18/M21 A3033 RMK AO2 SLP274 P0000 T11781211 FZRANO
TAF
PABE 
36nm NE 
230546Z 2306/2406 33008KT P6SM SKC FM231500 04006KT P6SM VCFG SCT020 SCT100 FM232100 03009KT P6SM BKN100
NOTAMs
Click for the latest NOTAMs
NOTAMs are issued by the DoD/FAA and will open in a separate window not controlled by AirNav.

 

 
 

Would you like to see your business listed on this page?

 If your business provides an interesting product or service to pilots, flight crews, aircraft, or users of the Tuntutuliak Airport, you should consider listing it here.  To start the listing process, click on the button below
 
Add a business
 

Other Pages about Tuntutuliak Airport

Update a link
 
Copyright © AirNav, LLC. All rights reserved. Privacy Policy  Contact